createdAt,value
2017-11-12T13:46:57.008Z,5.12
2017-11-12T13:52:25.530Z,2.37
2017-11-12T13:55:49.831Z,5.07
2017-11-12T13:59:14.101Z,2.47
2017-11-12T14:02:38.361Z,2.50
2017-11-12T14:06:01.844Z,2.80
2017-11-12T14:09:25.399Z,2.73
2017-11-12T14:12:48.901Z,3.00
2017-11-12T14:16:13.044Z,2.80
2017-11-12T14:19:36.524Z,3.10
2017-11-12T14:23:00.028Z,2.90
2017-11-12T14:26:23.546Z,4.73
2017-11-12T14:29:47.037Z,3.30
2017-11-12T14:33:10.622Z,1.73
2017-11-12T14:36:34.186Z,2.40
2017-11-12T14:39:57.692Z,4.13
2017-11-12T14:43:21.197Z,2.80
2017-11-12T14:46:45.449Z,1.87
2017-11-12T14:50:08.967Z,1.70
2017-11-12T14:53:33.245Z,1.80
2017-11-12T14:56:57.469Z,2.40
2017-11-12T15:00:20.948Z,2.63
2017-11-12T15:03:44.755Z,2.60
2017-11-12T15:07:08.271Z,2.00
2017-11-12T15:10:32.674Z,2.00
2017-11-12T15:13:56.995Z,2.10
2017-11-12T15:17:20.702Z,3.10
2017-11-12T15:20:44.977Z,2.40
2017-11-12T15:24:08.562Z,2.97
2017-11-12T15:27:32.055Z,2.40
2017-11-12T15:30:56.337Z,2.13
2017-11-12T15:34:19.867Z,1.50
2017-11-12T15:37:44.337Z,3.57
2017-11-12T15:41:07.837Z,1.83
2017-11-12T15:44:31.316Z,2.07
2017-11-12T15:47:54.817Z,1.97
2017-11-12T15:51:18.349Z,1.77
2017-11-12T15:54:41.852Z,2.00
2017-11-12T15:58:05.742Z,2.13
2017-11-12T16:01:29.637Z,1.93
2017-11-12T16:04:53.997Z,2.60
2017-11-12T16:08:19.051Z,1.97
2017-11-12T16:11:43.065Z,2.13
2017-11-12T16:15:07.456Z,2.50
2017-11-12T16:18:31.077Z,1.93
2017-11-12T16:21:54.601Z,2.47
2017-11-12T16:25:18.119Z,3.00
2017-11-12T16:28:41.584Z,1.83
2017-11-12T16:32:05.101Z,2.53
2017-11-12T16:35:28.633Z,2.30
2017-11-12T16:38:52.240Z,1.97
2017-11-12T16:42:16.565Z,1.80
2017-11-12T16:45:40.066Z,3.07
2017-11-12T16:49:03.546Z,1.90
2017-11-12T16:52:27.891Z,3.00
2017-11-12T16:55:51.424Z,3.03
2017-11-12T16:59:14.978Z,2.80
2017-11-12T17:02:38.472Z,2.77
2017-11-12T17:06:02.857Z,1.70
2017-11-12T17:09:27.120Z,2.90
2017-11-12T17:12:50.681Z,2.17
2017-11-12T17:16:14.681Z,2.83
2017-11-12T17:19:39.058Z,1.80
2017-11-12T17:23:02.884Z,3.17
2017-11-12T17:26:26.479Z,1.50
2017-11-12T17:29:50.835Z,9.13
2017-11-12T17:33:15.557Z,5.60
2017-11-12T17:36:39.781Z,30.13
2017-11-12T17:40:03.336Z,25.93
2017-11-12T17:43:27.627Z,20.10
2017-11-12T17:46:51.897Z,18.97
2017-11-12T17:50:15.509Z,15.20
2017-11-12T17:53:39.018Z,18.47
2017-11-12T17:57:04.157Z,15.17
2017-11-12T18:00:28.167Z,21.00
2017-11-12T18:03:51.789Z,13.07
2017-11-12T18:07:15.662Z,15.57
2017-11-12T18:10:39.985Z,14.13
2017-11-12T18:14:04.521Z,13.43
2017-11-12T18:17:28.924Z,16.90
2017-11-12T18:20:53.505Z,12.83
2017-11-12T18:24:16.978Z,9.20
2017-11-12T18:27:40.709Z,10.50
2017-11-12T18:31:04.722Z,11.77
2017-11-12T18:34:28.652Z,8.93
2017-11-12T18:37:52.506Z,11.30
2017-11-12T18:41:16.518Z,11.83
2017-11-12T18:44:41.435Z,5.27
2017-11-12T18:48:05.151Z,8.87
2017-11-12T18:51:29.159Z,8.93
2017-11-12T18:54:53.014Z,3.87
2017-11-12T18:58:20.800Z,7.10
2017-11-12T19:06:04.807Z,5.00
2017-11-12T19:09:33.825Z,5.87
2017-11-12T19:12:57.346Z,5.47
2017-11-12T19:16:21.757Z,5.63
2017-11-12T19:20:03.850Z,3.17
2017-11-12T19:23:42.258Z,4.70
2017-11-12T19:27:08.306Z,5.37
2017-11-12T19:30:32.586Z,2.87
2017-11-12T19:33:56.188Z,3.13
2017-11-12T19:37:20.255Z,4.10
2017-11-12T19:40:44.580Z,3.60
2017-11-12T19:44:08.991Z,4.07
2017-11-12T19:47:32.543Z,2.60
2017-11-12T19:50:57.443Z,3.70
2017-11-12T19:54:21.533Z,2.80
2017-11-12T19:57:45.151Z,2.33
2017-11-12T20:01:11.130Z,3.13
2017-11-12T20:04:35.482Z,2.43
2017-11-12T20:07:59.676Z,1.97
2017-11-12T20:11:23.744Z,4.10
2017-11-12T20:14:47.299Z,2.50
2017-11-12T20:18:10.817Z,2.00
2017-11-12T20:21:35.191Z,2.30
2017-11-12T20:24:58.792Z,2.70
2017-11-12T20:28:22.353Z,3.50
2017-11-12T20:31:46.613Z,2.43
2017-11-12T20:35:12.724Z,3.83
2017-11-12T20:38:36.624Z,1.90
2017-11-12T20:42:00.371Z,4.27
2017-11-12T20:45:23.918Z,2.67
2017-11-12T20:48:48.570Z,1.83
2017-11-12T20:52:12.622Z,2.70
2017-11-12T20:55:36.129Z,2.30
2017-11-12T20:58:59.784Z,2.60
2017-11-12T21:02:24.181Z,3.37
2017-11-12T21:05:51.162Z,1.90
2017-11-12T21:09:15.887Z,1.60
2017-11-12T21:12:41.360Z,2.73
2017-11-12T21:16:07.739Z,2.57
2017-11-12T21:19:36.712Z,2.70
2017-11-12T21:23:00.272Z,4.50
2017-11-12T21:26:23.837Z,2.37
2017-11-12T21:29:48.319Z,5.80
2017-11-12T21:37:26.680Z,4.63
2017-11-12T21:40:50.161Z,2.37
2017-11-12T21:44:13.669Z,1.80
2017-11-12T21:47:37.263Z,2.13
2017-11-12T21:51:01.512Z,3.53
2017-11-12T21:54:25.117Z,2.17
2017-11-12T21:57:49.004Z,2.00
2017-11-12T22:01:12.482Z,2.07
2017-11-12T22:04:36.004Z,2.50
2017-11-12T22:07:59.476Z,2.23
2017-11-12T22:11:22.966Z,2.27
2017-11-12T22:14:46.469Z,2.00
2017-11-12T22:18:10.909Z,2.63
2017-11-12T22:21:34.479Z,3.50
2017-11-12T22:24:58.025Z,2.73
2017-11-12T22:28:22.285Z,2.17
2017-11-12T22:31:45.811Z,2.37
2017-11-12T22:35:09.414Z,2.07
2017-11-12T22:38:32.997Z,2.00
2017-11-12T22:41:56.828Z,1.83
2017-11-12T22:45:20.356Z,1.73
2017-11-12T22:48:43.924Z,1.90
2017-11-12T22:52:07.401Z,1.70
2017-11-12T22:55:30.912Z,1.70
2017-11-12T22:58:54.416Z,1.90
2017-11-12T23:02:18.019Z,1.80
2017-11-12T23:05:41.806Z,1.60
2017-11-12T23:09:05.387Z,2.17
2017-11-12T23:12:28.892Z,1.93
2017-11-12T23:15:52.433Z,2.33
2017-11-12T23:19:16.856Z,3.60
2017-11-12T23:22:41.175Z,2.33
2017-11-12T23:26:04.655Z,2.10
2017-11-12T23:29:28.344Z,1.93
2017-11-12T23:32:51.824Z,1.80
2017-11-12T23:36:15.288Z,3.20
2017-11-12T23:39:38.808Z,1.60
2017-11-12T23:43:03.122Z,2.70
2017-11-12T23:46:26.647Z,2.07
2017-11-12T23:49:50.121Z,1.90
2017-11-12T23:53:13.597Z,1.40
2017-11-12T23:56:37.186Z,1.70
